sensor_id;sensor_type;location;lat;lon;timestamp;temperature;humidity
9762;DHT22;4920;49.594;11.022;2022-11-14T00:02:43;2.20;99.90
9762;DHT22;4920;49.594;11.022;2022-11-14T00:05:29;2.10;99.90
9762;DHT22;4920;49.594;11.022;2022-11-14T00:08:18;2.10;99.90
9762;DHT22;4920;49.594;11.022;2022-11-14T00:11:05;2.10;99.90
9762;DHT22;4920;49.594;11.022;2022-11-14T00:13:53;2.00;99.90
9762;DHT22;4920;49.594;11.022;2022-11-14T00:16:40;2.00;99.90
9762;DHT22;4920;49.594;11.022;2022-11-14T00:19:29;1.90;99.90
9762;DHT22;4920;49.594;11.022;2022-11-14T00:22:15;1.90;99.90
9762;DHT22;4920;49.594;11.022;2022-11-14T00:25:03;1.90;99.90
9762;DHT22;4920;49.594;11.022;2022-11-14T00:27:55;1.80;99.90
9762;DHT22;4920;49.594;11.022;2022-11-14T00:30:46;1.80;99.90
9762;DHT22;4920;49.594;11.022;2022-11-14T00:33:33;1.70;99.90
9762;DHT22;4920;49.594;11.022;2022-11-14T00:36:22;1.70;99.90
9762;DHT22;4920;49.594;11.022;2022-11-14T00:39:11;1.70;99.90
9762;DHT22;4920;49.594;11.022;2022-11-14T00:41:58;1.70;99.90
9762;DHT22;4920;49.594;11.022;2022-11-14T00:44:45;1.70;99.90
9762;DHT22;4920;49.594;11.022;2022-11-14T00:47:32;1.70;99.90
9762;DHT22;4920;49.594;11.022;2022-11-14T00:50:19;1.60;99.90
9762;DHT22;4920;49.594;11.022;2022-11-14T00:53:07;1.60;99.90
9762;DHT22;4920;49.594;11.022;2022-11-14T00:55:54;1.60;99.90
9762;DHT22;4920;49.594;11.022;2022-11-14T00:58:41;1.60;99.90
9762;DHT22;4920;49.594;11.022;2022-11-14T01:01:28;1.60;99.90
9762;DHT22;4920;49.594;11.022;2022-11-14T01:04:15;1.60;99.90
9762;DHT22;4920;49.594;11.022;2022-11-14T01:07:02;1.60;99.90
9762;DHT22;4920;49.594;11.022;2022-11-14T01:09:50;1.50;99.90
9762;DHT22;4920;49.594;11.022;2022-11-14T01:12:37;1.50;99.90
9762;DHT22;4920;49.594;11.022;2022-11-14T01:15:24;1.50;99.90
9762;DHT22;4920;49.594;11.022;2022-11-14T01:18:13;1.50;99.90
9762;DHT22;4920;49.594;11.022;2022-11-14T01:21:04;1.50;99.90
9762;DHT22;4920;49.594;11.022;2022-11-14T01:23:51;1.50;99.90
9762;DHT22;4920;49.594;11.022;2022-11-14T01:26:39;1.40;99.90
9762;DHT22;4920;49.594;11.022;2022-11-14T01:29:27;1.40;99.90
9762;DHT22;4920;49.594;11.022;2022-11-14T01:32:13;1.40;99.90
9762;DHT22;4920;49.594;11.022;2022-11-14T01:35:01;1.40;99.90
9762;DHT22;4920;49.594;11.022;2022-11-14T01:37:48;1.40;99.90
9762;DHT22;4920;49.594;11.022;2022-11-14T01:40:40;1.40;99.90
9762;DHT22;4920;49.594;11.022;2022-11-14T01:43:30;1.40;99.90
9762;DHT22;4920;49.594;11.022;2022-11-14T01:46:21;1.40;99.90
9762;DHT22;4920;49.594;11.022;2022-11-14T01:49:14;1.30;99.90
9762;DHT22;4920;49.594;11.022;2022-11-14T01:52:04;1.30;99.90
9762;DHT22;4920;49.594;11.022;2022-11-14T01:54:53;1.30;99.90
9762;DHT22;4920;49.594;11.022;2022-11-14T01:57:44;1.30;99.90
9762;DHT22;4920;49.594;11.022;2022-11-14T02:00:33;1.30;99.90
9762;DHT22;4920;49.594;11.022;2022-11-14T02:03:20;1.30;99.90
9762;DHT22;4920;49.594;11.022;2022-11-14T02:06:08;1.30;99.90
9762;DHT22;4920;49.594;11.022;2022-11-14T02:09:00;1.30;99.90
9762;DHT22;4920;49.594;11.022;2022-11-14T02:11:49;1.30;99.90
9762;DHT22;4920;49.594;11.022;2022-11-14T02:14:37;1.30;99.90
9762;DHT22;4920;49.594;11.022;2022-11-14T02:17:27;1.30;99.90
9762;DHT22;4920;49.594;11.022;2022-11-14T02:20:21;1.30;99.90
9762;DHT22;4920;49.594;11.022;2022-11-14T02:23:09;1.30;99.90
9762;DHT22;4920;49.594;11.022;2022-11-14T02:25:57;1.30;99.90
9762;DHT22;4920;49.594;11.022;2022-11-14T02:28:44;1.40;99.90
9762;DHT22;4920;49.594;11.022;2022-11-14T02:31:32;1.40;99.90
9762;DHT22;4920;49.594;11.022;2022-11-14T02:34:19;1.50;99.90
9762;DHT22;4920;49.594;11.022;2022-11-14T02:37:07;1.60;99.90
9762;DHT22;4920;49.594;11.022;2022-11-14T02:39:54;1.80;99.90
9762;DHT22;4920;49.594;11.022;2022-11-14T02:42:41;1.90;99.90
9762;DHT22;4920;49.594;11.022;2022-11-14T02:45:28;2.00;99.90
9762;DHT22;4920;49.594;11.022;2022-11-14T02:48:15;2.10;99.90
9762;DHT22;4920;49.594;11.022;2022-11-14T02:51:02;2.00;99.90
9762;DHT22;4920;49.594;11.022;2022-11-14T02:53:50;2.00;99.90
9762;DHT22;4920;49.594;11.022;2022-11-14T02:56:37;2.00;99.90
9762;DHT22;4920;49.594;11.022;2022-11-14T02:59:25;2.00;99.90
9762;DHT22;4920;49.594;11.022;2022-11-14T03:02:12;2.00;99.90
9762;DHT22;4920;49.594;11.022;2022-11-14T03:04:59;2.20;99.90
9762;DHT22;4920;49.594;11.022;2022-11-14T03:07:46;2.30;99.90
9762;DHT22;4920;49.594;11.022;2022-11-14T03:10:34;2.40;99.90
9762;DHT22;4920;49.594;11.022;2022-11-14T03:13:21;2.60;99.90
9762;DHT22;4920;49.594;11.022;2022-11-14T03:16:13;2.70;99.90
9762;DHT22;4920;49.594;11.022;2022-11-14T03:19:00;2.70;99.90
9762;DHT22;4920;49.594;11.022;2022-11-14T03:21:47;2.80;99.90
9762;DHT22;4920;49.594;11.022;2022-11-14T03:24:34;2.80;99.90
9762;DHT22;4920;49.594;11.022;2022-11-14T03:27:22;2.80;99.90
9762;DHT22;4920;49.594;11.022;2022-11-14T03:30:10;2.80;99.90
9762;DHT22;4920;49.594;11.022;2022-11-14T03:32:58;2.80;99.90
9762;DHT22;4920;49.594;11.022;2022-11-14T03:35:47;2.80;99.90
9762;DHT22;4920;49.594;11.022;2022-11-14T03:38:34;2.90;99.90
9762;DHT22;4920;49.594;11.022;2022-11-14T03:41:21;3.10;99.90
9762;DHT22;4920;49.594;11.022;2022-11-14T03:44:09;3.10;99.90
9762;DHT22;4920;49.594;11.022;2022-11-14T03:46:56;3.20;99.90
9762;DHT22;4920;49.594;11.022;2022-11-14T03:49:43;3.30;99.90
9762;DHT22;4920;49.594;11.022;2022-11-14T03:52:30;3.30;99.90
9762;DHT22;4920;49.594;11.022;2022-11-14T03:55:17;3.40;99.90
9762;DHT22;4920;49.594;11.022;2022-11-14T03:58:04;3.50;99.90
9762;DHT22;4920;49.594;11.022;2022-11-14T04:01:17;3.60;99.90
9762;DHT22;4920;49.594;11.022;2022-11-14T04:04:04;3.70;99.90
9762;DHT22;4920;49.594;11.022;2022-11-14T04:06:52;3.70;99.90
9762;DHT22;4920;49.594;11.022;2022-11-14T04:09:39;3.70;99.90
9762;DHT22;4920;49.594;11.022;2022-11-14T04:12:26;3.60;99.90
9762;DHT22;4920;49.594;11.022;2022-11-14T04:15:13;3.60;99.90
9762;DHT22;4920;49.594;11.022;2022-11-14T04:18:02;3.50;99.90
9762;DHT22;4920;49.594;11.022;2022-11-14T04:20:49;3.50;99.90
9762;DHT22;4920;49.594;11.022;2022-11-14T04:23:36;3.50;99.90
9762;DHT22;4920;49.594;11.022;2022-11-14T04:26:23;3.60;99.90
9762;DHT22;4920;49.594;11.022;2022-11-14T04:29:10;3.60;99.90
9762;DHT22;4920;49.594;11.022;2022-11-14T04:31:57;3.60;99.90
9762;DHT22;4920;49.594;11.022;2022-11-14T04:34:46;3.70;99.90
9762;DHT22;4920;49.594;11.022;2022-11-14T04:37:33;3.70;99.90
9762;DHT22;4920;49.594;11.022;2022-11-14T05:29:16;2.80;99.90
9762;DHT22;4920;49.594;11.022;2022-11-14T05:32:04;2.80;99.90
9762;DHT22;4920;49.594;11.022;2022-11-14T05:34:51;2.80;99.90
9762;DHT22;4920;49.594;11.022;2022-11-14T05:37:37;2.70;99.90
9762;DHT22;4920;49.594;11.022;2022-11-14T05:40:25;2.70;99.90
9762;DHT22;4920;49.594;11.022;2022-11-14T05:43:14;2.70;99.90
9762;DHT22;4920;49.594;11.022;2022-11-14T05:46:04;2.80;99.90
9762;DHT22;4920;49.594;11.022;2022-11-14T05:48:51;2.80;99.90
9762;DHT22;4920;49.594;11.022;2022-11-14T05:51:38;2.90;99.90
9762;DHT22;4920;49.594;11.022;2022-11-14T05:54:25;2.90;99.90
9762;DHT22;4920;49.594;11.022;2022-11-14T05:57:12;2.90;99.90
9762;DHT22;4920;49.594;11.022;2022-11-14T05:59:59;2.80;99.90
9762;DHT22;4920;49.594;11.022;2022-11-14T06:02:51;2.70;99.90
9762;DHT22;4920;49.594;11.022;2022-11-14T06:05:44;2.70;99.90
9762;DHT22;4920;49.594;11.022;2022-11-14T06:08:31;2.70;99.90
9762;DHT22;4920;49.594;11.022;2022-11-14T06:11:19;2.60;99.90
9762;DHT22;4920;49.594;11.022;2022-11-14T06:14:06;2.60;99.90
9762;DHT22;4920;49.594;11.022;2022-11-14T06:16:55;2.50;99.90
9762;DHT22;4920;49.594;11.022;2022-11-14T06:19:44;2.50;99.90
9762;DHT22;4920;49.594;11.022;2022-11-14T06:22:30;2.40;99.90
9762;DHT22;4920;49.594;11.022;2022-11-14T06:25:19;2.40;99.90
9762;DHT22;4920;49.594;11.022;2022-11-14T06:28:06;2.40;99.90
9762;DHT22;4920;49.594;11.022;2022-11-14T06:30:56;2.40;99.90
9762;DHT22;4920;49.594;11.022;2022-11-14T06:33:44;2.40;99.90
9762;DHT22;4920;49.594;11.022;2022-11-14T06:36:33;2.40;99.90
9762;DHT22;4920;49.594;11.022;2022-11-14T06:39:22;2.40;99.90
9762;DHT22;4920;49.594;11.022;2022-11-14T06:42:09;2.50;99.90
9762;DHT22;4920;49.594;11.022;2022-11-14T06:44:56;2.50;99.90
9762;DHT22;4920;49.594;11.022;2022-11-14T06:47:43;2.50;99.90
9762;DHT22;4920;49.594;11.022;2022-11-14T06:50:31;2.50;99.90
9762;DHT22;4920;49.594;11.022;2022-11-14T06:53:20;2.50;99.90
9762;DHT22;4920;49.594;11.022;2022-11-14T06:56:09;2.50;99.90
9762;DHT22;4920;49.594;11.022;2022-11-14T06:58:55;2.60;99.90
9762;DHT22;4920;49.594;11.022;2022-11-14T07:02:10;2.70;99.90
9762;DHT22;4920;49.594;11.022;2022-11-14T07:05:06;2.70;99.90
9762;DHT22;4920;49.594;11.022;2022-11-14T07:07:53;2.80;99.90
9762;DHT22;4920;49.594;11.022;2022-11-14T07:10:41;2.90;99.90
9762;DHT22;4920;49.594;11.022;2022-11-14T07:13:29;2.90;99.90
9762;DHT22;4920;49.594;11.022;2022-11-14T07:16:17;3.00;99.90
9762;DHT22;4920;49.594;11.022;2022-11-14T07:19:05;3.10;99.90
9762;DHT22;4920;49.594;11.022;2022-11-14T07:21:53;3.20;99.90
9762;DHT22;4920;49.594;11.022;2022-11-14T07:24:40;3.30;99.90
9762;DHT22;4920;49.594;11.022;2022-11-14T07:27:28;3.30;99.90
9762;DHT22;4920;49.594;11.022;2022-11-14T07:30:15;3.40;99.90
9762;DHT22;4920;49.594;11.022;2022-11-14T07:33:02;3.50;99.90
9762;DHT22;4920;49.594;11.022;2022-11-14T07:35:49;3.60;99.90
9762;DHT22;4920;49.594;11.022;2022-11-14T07:38:37;3.70;99.90
9762;DHT22;4920;49.594;11.022;2022-11-14T07:41:24;3.80;99.90
9762;DHT22;4920;49.594;11.022;2022-11-14T07:44:12;3.90;99.90
9762;DHT22;4920;49.594;11.022;2022-11-14T07:46:59;4.00;99.90
9762;DHT22;4920;49.594;11.022;2022-11-14T07:49:46;4.10;99.90
9762;DHT22;4920;49.594;11.022;2022-11-14T07:52:33;4.20;99.90
9762;DHT22;4920;49.594;11.022;2022-11-14T07:55:20;4.30;99.90
9762;DHT22;4920;49.594;11.022;2022-11-14T07:58:08;4.30;99.90
9762;DHT22;4920;49.594;11.022;2022-11-14T08:00:59;4.40;99.90
9762;DHT22;4920;49.594;11.022;2022-11-14T08:03:49;4.50;99.90
9762;DHT22;4920;49.594;11.022;2022-11-14T08:06:37;4.60;99.90
9762;DHT22;4920;49.594;11.022;2022-11-14T08:09:24;4.70;99.90
9762;DHT22;4920;49.594;11.022;2022-11-14T08:12:11;4.80;99.90
9762;DHT22;4920;49.594;11.022;2022-11-14T08:15:00;4.90;99.90
9762;DHT22;4920;49.594;11.022;2022-11-14T08:17:48;5.10;99.90
9762;DHT22;4920;49.594;11.022;2022-11-14T08:20:35;5.20;99.90
9762;DHT22;4920;49.594;11.022;2022-11-14T08:23:22;5.40;99.90
9762;DHT22;4920;49.594;11.022;2022-11-14T08:26:09;5.60;99.90
9762;DHT22;4920;49.594;11.022;2022-11-14T08:28:57;5.70;99.90
9762;DHT22;4920;49.594;11.022;2022-11-14T08:31:45;5.80;99.90
9762;DHT22;4920;49.594;11.022;2022-11-14T08:34:33;5.90;99.90
9762;DHT22;4920;49.594;11.022;2022-11-14T08:37:21;6.00;99.90
9762;DHT22;4920;49.594;11.022;2022-11-14T08:40:09;6.20;99.90
9762;DHT22;4920;49.594;11.022;2022-11-14T08:42:59;6.30;99.90
9762;DHT22;4920;49.594;11.022;2022-11-14T08:45:47;6.50;99.90
9762;DHT22;4920;49.594;11.022;2022-11-14T08:48:33;6.70;99.90
9762;DHT22;4920;49.594;11.022;2022-11-14T08:51:22;6.80;99.90
9762;DHT22;4920;49.594;11.022;2022-11-14T08:54:09;7.10;99.90
9762;DHT22;4920;49.594;11.022;2022-11-14T08:56:56;7.20;99.90
9762;DHT22;4920;49.594;11.022;2022-11-14T08:59:43;7.40;99.90
9762;DHT22;4920;49.594;11.022;2022-11-14T09:02:30;7.50;99.90
9762;DHT22;4920;49.594;11.022;2022-11-14T09:05:16;7.70;99.90
9762;DHT22;4920;49.594;11.022;2022-11-14T09:08:05;7.80;99.90
9762;DHT22;4920;49.594;11.022;2022-11-14T09:10:52;8.00;99.90
9762;DHT22;4920;49.594;11.022;2022-11-14T09:13:39;8.10;99.90
9762;DHT22;4920;49.594;11.022;2022-11-14T09:16:26;8.20;99.90
9762;DHT22;4920;49.594;11.022;2022-11-14T09:19:13;8.40;99.90
9762;DHT22;4920;49.594;11.022;2022-11-14T09:22:00;8.50;99.90
9762;DHT22;4920;49.594;11.022;2022-11-14T09:24:49;8.60;99.90
9762;DHT22;4920;49.594;11.022;2022-11-14T09:27:36;8.80;99.90
9762;DHT22;4920;49.594;11.022;2022-11-14T09:30:23;9.00;99.90
9762;DHT22;4920;49.594;11.022;2022-11-14T09:33:10;9.20;99.90
9762;DHT22;4920;49.594;11.022;2022-11-14T09:35:57;9.30;99.90
9762;DHT22;4920;49.594;11.022;2022-11-14T09:38:45;9.50;99.90
9762;DHT22;4920;49.594;11.022;2022-11-14T09:41:43;9.60;99.90
9762;DHT22;4920;49.594;11.022;2022-11-14T09:44:48;9.70;99.90
9762;DHT22;4920;49.594;11.022;2022-11-14T09:47:40;9.80;99.90
9762;DHT22;4920;49.594;11.022;2022-11-14T09:50:32;9.90;99.90
9762;DHT22;4920;49.594;11.022;2022-11-14T09:53:26;9.90;99.90
9762;DHT22;4920;49.594;11.022;2022-11-14T09:56:19;10.00;99.90
9762;DHT22;4920;49.594;11.022;2022-11-14T09:59:10;10.20;99.90
9762;DHT22;4920;49.594;11.022;2022-11-14T10:02:03;10.30;99.90
9762;DHT22;4920;49.594;11.022;2022-11-14T10:04:58;10.50;99.90
9762;DHT22;4920;49.594;11.022;2022-11-14T10:08:25;10.70;99.90
9762;DHT22;4920;49.594;11.022;2022-11-14T10:11:22;10.90;99.90
9762;DHT22;4920;49.594;11.022;2022-11-14T10:14:47;11.20;99.90
9762;DHT22;4920;49.594;11.022;2022-11-14T10:17:49;11.40;99.90
9762;DHT22;4920;49.594;11.022;2022-11-14T10:20:41;11.70;99.90
9762;DHT22;4920;49.594;11.022;2022-11-14T10:23:38;12.10;99.90
9762;DHT22;4920;49.594;11.022;2022-11-14T10:26:30;12.60;99.90
9762;DHT22;4920;49.594;11.022;2022-11-14T10:29:40;13.10;99.90
9762;DHT22;4920;49.594;11.022;2022-11-14T10:32:49;13.30;99.90
9762;DHT22;4920;49.594;11.022;2022-11-14T10:35:41;13.50;99.90
9762;DHT22;4920;49.594;11.022;2022-11-14T10:38:31;13.60;99.90
9762;DHT22;4920;49.594;11.022;2022-11-14T10:41:24;13.80;99.90
9762;DHT22;4920;49.594;11.022;2022-11-14T10:44:37;13.90;99.90
9762;DHT22;4920;49.594;11.022;2022-11-14T10:47:34;14.00;99.90
9762;DHT22;4920;49.594;11.022;2022-11-14T10:50:26;14.30;99.90
9762;DHT22;4920;49.594;11.022;2022-11-14T10:53:18;14.60;99.90
9762;DHT22;4920;49.594;11.022;2022-11-14T10:56:09;14.70;99.90
9762;DHT22;4920;49.594;11.022;2022-11-14T10:58:57;15.00;99.90
9762;DHT22;4920;49.594;11.022;2022-11-14T11:01:45;15.20;99.90
9762;DHT22;4920;49.594;11.022;2022-11-14T11:04:41;15.50;99.90
9762;DHT22;4920;49.594;11.022;2022-11-14T11:07:28;15.80;99.90
9762;DHT22;4920;49.594;11.022;2022-11-14T11:10:35;16.00;99.90
9762;DHT22;4920;49.594;11.022;2022-11-14T11:13:50;16.10;99.90
9762;DHT22;4920;49.594;11.022;2022-11-14T11:16:38;16.10;99.90
9762;DHT22;4920;49.594;11.022;2022-11-14T11:19:26;16.20;99.90
9762;DHT22;4920;49.594;11.022;2022-11-14T11:22:29;16.40;99.90
9762;DHT22;4920;49.594;11.022;2022-11-14T11:25:27;16.70;99.90
9762;DHT22;4920;49.594;11.022;2022-11-14T11:28:16;17.00;99.90
9762;DHT22;4920;49.594;11.022;2022-11-14T11:31:05;17.10;99.90
9762;DHT22;4920;49.594;11.022;2022-11-14T11:33:52;17.20;99.90
9762;DHT22;4920;49.594;11.022;2022-11-14T11:36:41;17.20;99.90
9762;DHT22;4920;49.594;11.022;2022-11-14T11:39:33;17.20;99.90
9762;DHT22;4920;49.594;11.022;2022-11-14T11:42:26;16.90;99.90
9762;DHT22;4920;49.594;11.022;2022-11-14T11:45:36;16.80;99.90
9762;DHT22;4920;49.594;11.022;2022-11-14T11:48:28;16.60;99.90
9762;DHT22;4920;49.594;11.022;2022-11-14T11:51:19;16.50;99.90
9762;DHT22;4920;49.594;11.022;2022-11-14T11:54:13;16.40;99.90
9762;DHT22;4920;49.594;11.022;2022-11-14T11:57:08;16.30;99.90
9762;DHT22;4920;49.594;11.022;2022-11-14T12:00:05;16.20;99.90
9762;DHT22;4920;49.594;11.022;2022-11-14T12:02:53;16.20;99.90
9762;DHT22;4920;49.594;11.022;2022-11-14T12:05:46;16.10;99.90
9762;DHT22;4920;49.594;11.022;2022-11-14T12:08:44;16.10;99.90
9762;DHT22;4920;49.594;11.022;2022-11-14T12:11:37;16.20;99.90
9762;DHT22;4920;49.594;11.022;2022-11-14T12:14:47;16.20;99.90
9762;DHT22;4920;49.594;11.022;2022-11-14T12:18:09;16.20;99.90
9762;DHT22;4920;49.594;11.022;2022-11-14T12:21:10;16.30;99.90
9762;DHT22;4920;49.594;11.022;2022-11-14T12:24:22;16.40;99.90
9762;DHT22;4920;49.594;11.022;2022-11-14T12:27:18;16.50;99.90
9762;DHT22;4920;49.594;11.022;2022-11-14T12:30:12;16.50;99.90
9762;DHT22;4920;49.594;11.022;2022-11-14T12:33:04;16.70;99.90
9762;DHT22;4920;49.594;11.022;2022-11-14T12:35:56;17.00;99.90
9762;DHT22;4920;49.594;11.022;2022-11-14T12:38:45;17.10;99.90
9762;DHT22;4920;49.594;11.022;2022-11-14T12:41:35;17.20;99.90
9762;DHT22;4920;49.594;11.022;2022-11-14T12:44:37;17.00;99.90
9762;DHT22;4920;49.594;11.022;2022-11-14T12:47:27;16.90;99.90
9762;DHT22;4920;49.594;11.022;2022-11-14T12:50:28;16.70;99.90
9762;DHT22;4920;49.594;11.022;2022-11-14T12:53:40;16.50;99.90
9762;DHT22;4920;49.594;11.022;2022-11-14T12:56:51;16.30;99.90
9762;DHT22;4920;49.594;11.022;2022-11-14T12:59:48;16.10;99.90
9762;DHT22;4920;49.594;11.022;2022-11-14T13:03:15;15.90;99.90
9762;DHT22;4920;49.594;11.022;2022-11-14T13:06:07;15.70;99.90
9762;DHT22;4920;49.594;11.022;2022-11-14T13:09:19;15.70;99.90
9762;DHT22;4920;49.594;11.022;2022-11-14T13:12:30;15.60;99.90
9762;DHT22;4920;49.594;11.022;2022-11-14T13:15:47;15.70;99.90
9762;DHT22;4920;49.594;11.022;2022-11-14T13:18:55;15.70;99.90
9762;DHT22;4920;49.594;11.022;2022-11-14T13:22:38;15.70;99.90
9762;DHT22;4920;49.594;11.022;2022-11-14T13:25:25;15.70;99.90
9762;DHT22;4920;49.594;11.022;2022-11-14T13:28:45;15.70;99.90
9762;DHT22;4920;49.594;11.022;2022-11-14T13:31:44;15.80;99.90
9762;DHT22;4920;49.594;11.022;2022-11-14T13:34:48;16.00;99.90
9762;DHT22;4920;49.594;11.022;2022-11-14T13:37:57;16.20;99.90
9762;DHT22;4920;49.594;11.022;2022-11-14T13:40:53;16.20;99.90
9762;DHT22;4920;49.594;11.022;2022-11-14T13:43:55;16.20;99.90
9762;DHT22;4920;49.594;11.022;2022-11-14T13:50:02;16.10;99.90
9762;DHT22;4920;49.594;11.022;2022-11-14T13:52:50;16.10;99.90
9762;DHT22;4920;49.594;11.022;2022-11-14T13:55:53;15.90;99.90
9762;DHT22;4920;49.594;11.022;2022-11-14T13:58:59;15.90;99.90
9762;DHT22;4920;49.594;11.022;2022-11-14T14:05:10;15.80;99.90
9762;DHT22;4920;49.594;11.022;2022-11-14T14:08:18;15.80;99.90
9762;DHT22;4920;49.594;11.022;2022-11-14T14:11:30;16.00;99.90
9762;DHT22;4920;49.594;11.022;2022-11-14T14:14:37;16.10;99.90
9762;DHT22;4920;49.594;11.022;2022-11-14T14:17:31;16.10;99.90
9762;DHT22;4920;49.594;11.022;2022-11-14T14:20:32;16.20;99.90
9762;DHT22;4920;49.594;11.022;2022-11-14T14:23:32;16.10;99.90
9762;DHT22;4920;49.594;11.022;2022-11-14T14:26:22;15.90;99.90
9762;DHT22;4920;49.594;11.022;2022-11-14T14:29:22;15.70;99.90
9762;DHT22;4920;49.594;11.022;2022-11-14T14:32:11;15.50;99.90
9762;DHT22;4920;49.594;11.022;2022-11-14T14:34:59;15.50;99.90
9762;DHT22;4920;49.594;11.022;2022-11-14T14:37:51;15.50;99.90
9762;DHT22;4920;49.594;11.022;2022-11-14T14:40:43;15.20;99.90
9762;DHT22;4920;49.594;11.022;2022-11-14T14:43:33;14.90;99.90
9762;DHT22;4920;49.594;11.022;2022-11-14T14:46:30;14.70;99.90
9762;DHT22;4920;49.594;11.022;2022-11-14T14:49:20;14.50;1.00
9762;DHT22;4920;49.594;11.022;2022-11-14T14:52:19;14.20;1.00
9762;DHT22;4920;49.594;11.022;2022-11-14T14:55:22;13.90;1.00
9762;DHT22;4920;49.594;11.022;2022-11-14T14:58:13;13.70;1.00
9762;DHT22;4920;49.594;11.022;2022-11-14T15:01:11;13.40;1.00
9762;DHT22;4920;49.594;11.022;2022-11-14T15:04:02;13.20;1.00
9762;DHT22;4920;49.594;11.022;2022-11-14T15:06:51;13.10;1.00
9762;DHT22;4920;49.594;11.022;2022-11-14T15:09:50;12.90;93.40
9762;DHT22;4920;49.594;11.022;2022-11-14T15:12:39;12.80;99.90
9762;DHT22;4920;49.594;11.022;2022-11-14T15:15:27;12.80;99.90
9762;DHT22;4920;49.594;11.022;2022-11-14T15:18:22;12.70;99.90
9762;DHT22;4920;49.594;11.022;2022-11-14T15:21:14;12.60;99.90
9762;DHT22;4920;49.594;11.022;2022-11-14T15:24:11;12.50;1.00
9762;DHT22;4920;49.594;11.022;2022-11-14T15:27:02;12.40;1.00
9762;DHT22;4920;49.594;11.022;2022-11-14T15:29:53;12.20;1.00
9762;DHT22;4920;49.594;11.022;2022-11-14T15:32:47;12.10;99.90
9762;DHT22;4920;49.594;11.022;2022-11-14T15:35:37;11.90;99.90
9762;DHT22;4920;49.594;11.022;2022-11-14T15:38:24;11.80;1.00
9762;DHT22;4920;49.594;11.022;2022-11-14T15:41:29;11.70;1.00
9762;DHT22;4920;49.594;11.022;2022-11-14T15:44:30;11.60;92.10
9762;DHT22;4920;49.594;11.022;2022-11-14T15:47:21;11.60;99.90
9762;DHT22;4920;49.594;11.022;2022-11-14T15:50:23;11.40;1.00
9762;DHT22;4920;49.594;11.022;2022-11-14T15:53:21;11.30;1.00
9762;DHT22;4920;49.594;11.022;2022-11-14T15:56:10;11.20;99.90
9762;DHT22;4920;49.594;11.022;2022-11-14T15:58:58;11.10;1.00
9762;DHT22;4920;49.594;11.022;2022-11-14T16:01:48;10.90;99.90
9762;DHT22;4920;49.594;11.022;2022-11-14T16:04:37;10.80;1.00
9762;DHT22;4920;49.594;11.022;2022-11-14T16:07:31;10.70;94.80
9762;DHT22;4920;49.594;11.022;2022-11-14T16:10:20;10.60;99.90
9762;DHT22;4920;49.594;11.022;2022-11-14T16:13:07;10.50;1.00
9762;DHT22;4920;49.594;11.022;2022-11-14T16:15:55;10.50;99.90
9762;DHT22;4920;49.594;11.022;2022-11-14T16:18:42;10.40;1.00
9762;DHT22;4920;49.594;11.022;2022-11-14T16:21:31;10.40;1.00
9762;DHT22;4920;49.594;11.022;2022-11-14T16:24:20;10.40;1.00
9762;DHT22;4920;49.594;11.022;2022-11-14T16:27:07;10.40;99.90
9762;DHT22;4920;49.594;11.022;2022-11-14T16:29:54;10.30;1.00
9762;DHT22;4920;49.594;11.022;2022-11-14T16:32:42;10.30;99.90
9762;DHT22;4920;49.594;11.022;2022-11-14T16:35:30;10.30;1.00
9762;DHT22;4920;49.594;11.022;2022-11-14T16:38:19;10.30;90.00
9762;DHT22;4920;49.594;11.022;2022-11-14T16:41:06;10.20;99.90
9762;DHT22;4920;49.594;11.022;2022-11-14T16:43:54;10.20;99.90
9762;DHT22;4920;49.594;11.022;2022-11-14T16:46:42;10.10;1.00
9762;DHT22;4920;49.594;11.022;2022-11-14T16:49:29;10.10;1.00
9762;DHT22;4920;49.594;11.022;2022-11-14T16:52:16;10.00;7.40
9762;DHT22;4920;49.594;11.022;2022-11-14T16:55:05;9.90;1.00
9762;DHT22;4920;49.594;11.022;2022-11-14T16:57:52;9.80;1.00
9762;DHT22;4920;49.594;11.022;2022-11-14T17:00:41;9.80;99.90
9762;DHT22;4920;49.594;11.022;2022-11-14T17:03:30;9.70;1.00
9762;DHT22;4920;49.594;11.022;2022-11-14T17:06:18;9.60;1.00
9762;DHT22;4920;49.594;11.022;2022-11-14T17:09:05;9.60;99.90
9762;DHT22;4920;49.594;11.022;2022-11-14T17:11:53;9.60;1.00
9762;DHT22;4920;49.594;11.022;2022-11-14T17:14:40;9.60;1.00
9762;DHT22;4920;49.594;11.022;2022-11-14T17:17:27;9.50;99.90
9762;DHT22;4920;49.594;11.022;2022-11-14T17:20:14;9.40;1.00
9762;DHT22;4920;49.594;11.022;2022-11-14T17:23:07;9.40;1.00
9762;DHT22;4920;49.594;11.022;2022-11-14T17:26:00;9.30;99.90
9762;DHT22;4920;49.594;11.022;2022-11-14T17:28:48;9.30;1.00
9762;DHT22;4920;49.594;11.022;2022-11-14T17:31:35;9.30;1.00
9762;DHT22;4920;49.594;11.022;2022-11-14T17:34:26;9.20;99.90
9762;DHT22;4920;49.594;11.022;2022-11-14T17:37:13;9.20;1.00
9762;DHT22;4920;49.594;11.022;2022-11-14T17:40:01;9.20;99.90
9762;DHT22;4920;49.594;11.022;2022-11-14T17:42:48;9.20;1.00
9762;DHT22;4920;49.594;11.022;2022-11-14T17:45:40;9.10;1.00
9762;DHT22;4920;49.594;11.022;2022-11-14T17:48:27;9.10;1.00
9762;DHT22;4920;49.594;11.022;2022-11-14T17:51:15;9.10;1.00
9762;DHT22;4920;49.594;11.022;2022-11-14T17:54:02;9.10;1.00
9762;DHT22;4920;49.594;11.022;2022-11-14T17:56:49;9.00;1.00
9762;DHT22;4920;49.594;11.022;2022-11-14T17:59:39;9.00;1.00
9762;DHT22;4920;49.594;11.022;2022-11-14T18:02:28;9.00;1.00
9762;DHT22;4920;49.594;11.022;2022-11-14T18:05:15;8.90;1.00
9762;DHT22;4920;49.594;11.022;2022-11-14T18:08:02;8.80;1.00
9762;DHT22;4920;49.594;11.022;2022-11-14T18:10:49;8.80;1.00
9762;DHT22;4920;49.594;11.022;2022-11-14T18:13:37;8.70;99.90
9762;DHT22;4920;49.594;11.022;2022-11-14T18:16:25;8.60;99.90
9762;DHT22;4920;49.594;11.022;2022-11-14T18:19:33;8.60;99.90
9762;DHT22;4920;49.594;11.022;2022-11-14T18:22:21;8.60;99.90
9762;DHT22;4920;49.594;11.022;2022-11-14T18:25:09;8.50;99.90
9762;DHT22;4920;49.594;11.022;2022-11-14T18:27:56;8.50;99.90
9762;DHT22;4920;49.594;11.022;2022-11-14T18:30:52;8.50;99.90
9762;DHT22;4920;49.594;11.022;2022-11-14T18:33:40;8.50;99.90
9762;DHT22;4920;49.594;11.022;2022-11-14T18:36:28;8.60;99.90
9762;DHT22;4920;49.594;11.022;2022-11-14T18:39:15;8.60;99.90
9762;DHT22;4920;49.594;11.022;2022-11-14T18:42:02;8.70;99.90
9762;DHT22;4920;49.594;11.022;2022-11-14T18:44:55;8.70;99.90
9762;DHT22;4920;49.594;11.022;2022-11-14T18:47:42;8.80;99.90
9762;DHT22;4920;49.594;11.022;2022-11-14T18:50:59;8.80;99.90
9762;DHT22;4920;49.594;11.022;2022-11-14T18:53:48;8.80;99.90
9762;DHT22;4920;49.594;11.022;2022-11-14T18:56:35;8.60;99.90
9762;DHT22;4920;49.594;11.022;2022-11-14T18:59:22;8.60;99.90
9762;DHT22;4920;49.594;11.022;2022-11-14T19:02:09;8.40;99.90
9762;DHT22;4920;49.594;11.022;2022-11-14T19:04:57;8.30;99.90
9762;DHT22;4920;49.594;11.022;2022-11-14T19:07:44;8.30;99.90
9762;DHT22;4920;49.594;11.022;2022-11-14T19:10:33;8.20;99.90
9762;DHT22;4920;49.594;11.022;2022-11-14T19:13:22;8.10;99.90
9762;DHT22;4920;49.594;11.022;2022-11-14T19:16:10;8.10;99.90
9762;DHT22;4920;49.594;11.022;2022-11-14T19:19:22;8.00;99.90
9762;DHT22;4920;49.594;11.022;2022-11-14T19:22:09;7.90;99.90
9762;DHT22;4920;49.594;11.022;2022-11-14T19:24:56;7.80;99.90
9762;DHT22;4920;49.594;11.022;2022-11-14T19:27:49;7.70;99.90
9762;DHT22;4920;49.594;11.022;2022-11-14T19:30:37;7.70;99.90